Time;durP1;ratioP1;P1;durP2;ratioP2;P2;SDS_P1;SDS_P2;PMS_P1;PMS_P2;Temp;Humidity;BMP_temperature;BMP_pressure;BME280_temperature;BME280_humidity;BME280_pressure;Samples;Min_cycle;Max_cycle;Signal;HPM_P1;HPM_P2
2023/12/08 00:00:07;;;;;;;18.60;15.20;;;13.20;74.10;;;;;;344108;28;920;-57
2023/12/08 00:00:18;;;;;;;18.67;15.20;;;13.20;74.10;;;;;;344283;28;849;-56
2023/12/08 00:00:29;;;;;;;18.10;14.93;;;13.20;74.10;;;;;;344220;28;1260;-56
2023/12/08 00:00:40;;;;;;;17.85;14.77;;;13.30;74.10;;;;;;344316;28;869;-56
2023/12/08 00:00:50;;;;;;;18.17;14.82;;;13.20;74.10;;;;;;344257;28;1120;-57
2023/12/08 00:01:01;;;;;;;18.58;15.10;;;13.20;74.00;;;;;;344157;28;1011;-57
2023/12/08 00:01:15;;;;;;;18.43;15.30;;;13.20;74.00;;;;;;343966;28;1521;-57
2023/12/08 00:01:25;;;;;;;19.10;15.75;;;13.20;74.10;;;;;;344201;28;1095;-56
2023/12/08 00:01:36;;;;;;;19.25;15.93;;;13.20;74.10;;;;;;344251;28;1008;-57
2023/12/08 00:01:47;;;;;;;18.85;15.80;;;13.20;74.10;;;;;;344297;28;972;-57
2023/12/08 00:01:58;;;;;;;18.70;15.77;;;13.20;74.10;;;;;;344157;28;998;-57
2023/12/08 00:02:08;;;;;;;18.35;15.50;;;13.20;74.10;;;;;;344170;28;1159;-57
2023/12/08 00:02:19;;;;;;;19.38;15.50;;;13.20;74.00;;;;;;344275;28;833;-57
2023/12/08 00:02:30;;;;;;;20.20;15.30;;;13.20;74.10;;;;;;344221;28;1012;-57
2023/12/08 00:02:40;;;;;;;21.30;15.25;;;13.20;74.00;;;;;;344155;28;930;-59
2023/12/08 00:02:51;;;;;;;20.10;14.93;;;13.20;74.00;;;;;;344227;28;941;-56
2023/12/08 00:03:02;;;;;;;19.75;14.93;;;13.20;74.00;;;;;;344202;28;1063;-56
2023/12/08 00:03:13;;;;;;;18.70;14.73;;;13.20;73.90;;;;;;344225;28;1781;-56
2023/12/08 00:03:23;;;;;;;18.30;14.70;;;13.20;73.90;;;;;;344161;28;967;-56
2023/12/08 00:03:34;;;;;;;18.20;14.67;;;13.30;73.90;;;;;;344207;28;1020;-57
2023/12/08 00:03:45;;;;;;;18.30;14.93;;;13.20;73.90;;;;;;344207;28;1071;-56
2023/12/08 00:03:56;;;;;;;17.45;14.40;;;13.30;73.90;;;;;;344270;28;1040;-55
2023/12/08 00:04:06;;;;;;;16.38;13.82;;;13.30;73.90;;;;;;344164;28;904;-57
2023/12/08 00:04:18;;;;;;;16.27;13.45;;;13.20;73.90;;;;;;344169;28;1092;-57
2023/12/08 00:04:29;;;;;;;16.58;13.40;;;13.30;73.90;;;;;;344245;28;1526;-57
2023/12/08 00:04:39;;;;;;;17.15;13.90;;;13.20;73.80;;;;;;344227;28;1102;-56
2023/12/08 00:04:50;;;;;;;17.30;14.30;;;13.20;73.80;;;;;;344106;28;1249;-56
2023/12/08 00:05:01;;;;;;;17.00;14.45;;;13.30;73.80;;;;;;344199;28;1011;-56
2023/12/08 00:05:13;;;;;;;16.93;14.70;;;13.30;73.80;;;;;;344189;28;1306;-56
2023/12/08 00:05:24;;;;;;;18.20;15.07;;;13.20;73.80;;;;;;344304;28;1022;-56
2023/12/08 00:05:34;;;;;;;18.58;15.07;;;13.30;73.80;;;;;;344178;28;1287;-56
2023/12/08 00:05:45;;;;;;;19.00;15.30;;;13.30;73.90;;;;;;344268;28;825;-56
2023/12/08 00:05:56;;;;;;;18.23;15.13;;;13.30;73.90;;;;;;344229;28;1087;-56
2023/12/08 00:06:07;;;;;;;17.70;14.90;;;13.30;73.90;;;;;;344201;28;1011;-56
2023/12/08 00:06:18;;;;;;;18.35;15.15;;;13.30;73.80;;;;;;344238;28;1166;-57
2023/12/08 00:06:29;;;;;;;18.75;14.93;;;13.30;73.80;;;;;;344220;28;1473;-56
2023/12/08 00:06:40;;;;;;;18.17;14.50;;;13.20;73.80;;;;;;344217;28;1039;-56
2023/12/08 00:06:51;;;;;;;18.27;14.60;;;13.30;73.80;;;;;;344138;28;988;-57
2023/12/08 00:07:02;;;;;;;17.70;14.63;;;13.30;73.80;;;;;;344291;28;1107;-57
2023/12/08 00:07:13;;;;;;;18.30;14.68;;;13.20;73.80;;;;;;344204;28;1023;-57
2023/12/08 00:07:24;;;;;;;18.70;14.38;;;13.30;73.80;;;;;;344224;28;896;-55
2023/12/08 00:07:35;;;;;;;19.60;14.65;;;13.20;73.90;;;;;;344171;28;1268;-57
2023/12/08 00:07:46;;;;;;;18.80;15.05;;;13.20;73.90;;;;;;344229;28;1106;-57
2023/12/08 00:07:56;;;;;;;17.60;14.57;;;13.30;73.80;;;;;;344152;28;898;-57
2023/12/08 00:08:07;;;;;;;16.67;14.30;;;13.20;73.80;;;;;;344222;28;1094;-56
2023/12/08 00:08:18;;;;;;;16.23;13.55;;;13.20;73.80;;;;;;344176;28;1107;-58
2023/12/08 00:08:28;;;;;;;17.33;13.82;;;13.20;73.80;;;;;;344159;28;972;-57
2023/12/08 00:08:40;;;;;;;16.88;13.68;;;13.30;73.80;;;;;;344277;28;892;-55
2023/12/08 00:08:50;;;;;;;17.50;14.18;;;13.30;73.80;;;;;;344244;28;929;-57
2023/12/08 00:09:01;;;;;;;17.17;13.93;;;13.30;73.80;;;;;;344129;28;1866;-56
2023/12/08 00:09:12;;;;;;;17.55;13.63;;;13.30;73.80;;;;;;344154;28;1012;-57
2023/12/08 00:09:23;;;;;;;17.17;13.75;;;13.30;73.80;;;;;;344228;28;940;-56
2023/12/08 00:09:34;;;;;;;17.13;13.90;;;13.30;73.70;;;;;;344113;28;1087;-57
2023/12/08 00:09:45;;;;;;;16.55;13.77;;;13.30;73.70;;;;;;344261;28;965;-56
2023/12/08 00:09:56;;;;;;;15.70;13.13;;;13.30;73.70;;;;;;344182;28;1950;-57
2023/12/08 00:10:07;;;;;;;15.70;12.77;;;13.30;73.80;;;;;;344172;28;1050;-56
2023/12/08 00:10:18;;;;;;;16.94;13.06;;;13.20;73.70;;;;;;344245;28;1036;-57
2023/12/08 00:10:28;;;;;;;18.93;13.70;;;13.30;73.70;;;;;;344250;28;876;-58
2023/12/08 00:10:39;;;;;;;19.10;13.50;;;13.30;73.70;;;;;;344084;28;2092;-58
2023/12/08 00:10:50;;;;;;;16.83;12.93;;;13.30;73.70;;;;;;344284;28;1008;-56
2023/12/08 00:11:00;;;;;;;15.70;12.80;;;13.30;73.60;;;;;;344234;28;980;-56
2023/12/08 00:11:11;;;;;;;15.07;12.80;;;13.30;73.60;;;;;;344078;28;1461;-56
2023/12/08 00:11:22;;;;;;;15.77;12.88;;;13.30;73.70;;;;;;344231;28;2397;-56
2023/12/08 00:11:33;;;;;;;15.07;12.52;;;13.20;73.60;;;;;;344201;28;909;-56
2023/12/08 00:11:43;;;;;;;14.77;12.15;;;13.30;73.70;;;;;;344206;28;900;-56
2023/12/08 00:11:54;;;;;;;13.95;11.88;;;13.30;73.70;;;;;;344142;28;1146;-56
2023/12/08 00:12:05;;;;;;;14.10;11.80;;;13.30;73.70;;;;;;344192;28;1079;-57
2023/12/08 00:12:16;;;;;;;14.48;12.13;;;13.30;73.70;;;;;;344276;28;988;-56
2023/12/08 00:12:27;;;;;;;14.55;12.20;;;13.30;73.70;;;;;;344222;28;977;-56
2023/12/08 00:12:38;;;;;;;13.87;11.73;;;13.30;73.70;;;;;;344150;28;2167;-56
2023/12/08 00:12:49;;;;;;;13.48;11.52;;;13.30;73.60;;;;;;344285;28;829;-57
2023/12/08 00:12:59;;;;;;;13.55;11.88;;;13.30;73.60;;;;;;344205;28;993;-56
2023/12/08 00:13:10;;;;;;;14.30;12.18;;;13.30;73.50;;;;;;344201;28;1819;-56
2023/12/08 00:13:21;;;;;;;14.50;12.23;;;13.30;73.50;;;;;;344200;28;1484;-56
2023/12/08 00:13:32;;;;;;;14.50;11.87;;;13.30;73.50;;;;;;344239;28;825;-56
2023/12/08 00:13:44;;;;;;;14.30;11.95;;;13.30;73.50;;;;;;344260;28;1046;-57
2023/12/08 00:13:55;;;;;;;14.40;11.82;;;13.30;73.50;;;;;;344259;28;1024;-58
2023/12/08 00:14:06;;;;;;;13.87;11.47;;;13.30;73.30;;;;;;344096;28;956;-57
2023/12/08 00:14:16;;;;;;;13.93;11.57;;;13.30;73.30;;;;;;344188;28;1139;-57
2023/12/08 00:14:27;;;;;;;13.82;11.45;;;13.30;73.30;;;;;;344201;28;1076;-56
2023/12/08 00:14:38;;;;;;;14.60;11.68;;;13.30;73.30;;;;;;344190;28;1024;-56
2023/12/08 00:14:50;;;;;;;14.63;11.52;;;13.30;73.20;;;;;;344119;28;939;-57
2023/12/08 00:15:01;;;;;;;14.68;11.23;;;13.30;73.40;;;;;;344244;28;1032;-56
2023/12/08 00:15:12;;;;;;;14.13;10.93;;;13.20;73.50;;;;;;344249;28;984;-55
2023/12/08 00:15:23;;;;;;;14.30;11.13;;;13.20;73.50;;;;;;344206;28;1188;-57
2023/12/08 00:15:33;;;;;;;14.82;11.60;;;13.20;73.60;;;;;;344180;28;1039;-56
2023/12/08 00:15:44;;;;;;;14.93;11.83;;;13.30;73.70;;;;;;344294;28;809;-58
2023/12/08 00:15:55;;;;;;;14.93;12.07;;;13.20;73.70;;;;;;344194;28;1083;-56
2023/12/08 00:16:06;;;;;;;15.13;12.50;;;13.30;73.70;;;;;;344182;28;1008;-57
2023/12/08 00:16:16;;;;;;;15.10;12.38;;;13.30;73.70;;;;;;344164;28;1024;-56
2023/12/08 00:16:29;;;;;;;15.38;12.20;;;13.20;73.80;;;;;;344201;28;972;-57
2023/12/08 00:16:41;;;;;;;14.48;11.57;;;13.20;73.80;;;;;;344264;28;1063;-57
2023/12/08 00:16:52;;;;;;;14.52;12.15;;;13.20;73.80;;;;;;344234;28;1537;-56
2023/12/08 00:17:03;;;;;;;14.63;12.25;;;13.20;73.80;;;;;;344118;28;1143;-57
2023/12/08 00:17:13;;;;;;;14.68;12.27;;;13.20;73.80;;;;;;344185;28;1230;-56
2023/12/08 00:17:24;;;;;;;14.25;12.05;;;13.30;73.80;;;;;;344240;28;1027;-56
2023/12/08 00:17:35;;;;;;;14.93;12.55;;;13.30;73.80;;;;;;344182;28;853;-57
2023/12/08 00:17:46;;;;;;;14.20;12.17;;;13.30;73.70;;;;;;344137;28;888;-56
2023/12/08 00:17:56;;;;;;;14.20;12.05;;;13.30;73.70;;;;;;344204;28;1012;-56
2023/12/08 00:18:07;;;;;;;13.73;11.55;;;13.30;73.60;;;;;;344191;28;1012;-57
2023/12/08 00:18:18;;;;;;;13.43;11.35;;;13.30;73.60;;;;;;344206;28;1095;-56
2023/12/08 00:18:29;;;;;;;13.52;11.18;;;13.30;73.60;;;;;;344181;28;1883;-56
2023/12/08 00:18:40;;;;;;;13.18;11.13;;;13.30;73.60;;;;;;344174;28;1952;-56
2023/12/08 00:18:50;;;;;;;13.50;11.70;;;13.30;73.60;;;;;;344216;28;1071;-56
2023/12/08 00:19:01;;;;;;;13.53;12.03;;;13.20;73.60;;;;;;344266;28;987;-55
2023/12/08 00:19:12;;;;;;;15.25;12.73;;;13.20;73.60;;;;;;344159;28;1037;-58
2023/12/08 00:19:23;;;;;;;15.32;12.32;;;13.30;73.60;;;;;;344109;28;1390;-56
2023/12/08 00:19:34;;;;;;;15.23;11.77;;;13.20;73.50;;;;;;344265;28;877;-57
2023/12/08 00:19:45;;;;;;;14.23;11.60;;;13.30;73.50;;;;;;344202;28;850;-56
2023/12/08 00:19:56;;;;;;;14.35;11.90;;;13.30;73.50;;;;;;344180;28;1025;-57
2023/12/08 00:20:07;;;;;;;14.02;11.75;;;13.20;73.50;;;;;;344191;28;997;-56
2023/12/08 00:20:18;;;;;;;14.43;11.63;;;13.30;73.60;;;;;;344212;28;1100;-57
2023/12/08 00:20:29;;;;;;;14.90;11.60;;;13.30;73.60;;;;;;344170;28;976;-56
2023/12/08 00:20:40;;;;;;;15.40;12.02;;;13.30;73.60;;;;;;344160;28;897;-56
2023/12/08 00:20:50;;;;;;;15.45;12.00;;;13.30;73.70;;;;;;344152;28;1096;-56
2023/12/08 00:21:01;;;;;;;15.27;12.07;;;13.30;73.60;;;;;;344241;28;1075;-57
2023/12/08 00:21:12;;;;;;;14.33;11.63;;;13.30;73.50;;;;;;344167;28;1087;-56
2023/12/08 00:21:25;;;;;;;13.43;11.50;;;13.30;73.50;;;;;;344104;28;1028;-57
2023/12/08 00:21:36;;;;;;;13.23;11.00;;;13.30;73.50;;;;;;344177;28;1087;-57
2023/12/08 00:21:46;;;;;;;14.43;11.17;;;13.20;73.40;;;;;;344208;28;1099;-58
2023/12/08 00:21:57;;;;;;;14.98;11.57;;;13.20;73.40;;;;;;344192;28;1031;-57
2023/12/08 00:22:08;;;;;;;14.55;11.85;;;13.30;73.40;;;;;;344156;28;1042;-56
2023/12/08 00:22:19;;;;;;;14.32;11.60;;;13.20;73.40;;;;;;344294;28;865;-56
2023/12/08 00:22:29;;;;;;;14.13;11.32;;;13.30;73.40;;;;;;344136;28;1051;-57
2023/12/08 00:22:40;;;;;;;14.00;11.30;;;13.20;73.40;;;;;;344181;28;1108;-56
2023/12/08 00:22:51;;;;;;;13.55;11.27;;;13.30;73.40;;;;;;344081;28;1252;-56
2023/12/08 00:23:02;;;;;;;13.80;11.50;;;13.20;73.50;;;;;;344258;28;896;-56
2023/12/08 00:23:13;;;;;;;14.43;11.85;;;13.20;73.50;;;;;;344149;28;1869;-57
2023/12/08 00:23:24;;;;;;;14.94;11.80;;;13.20;73.50;;;;;;344215;28;973;-57
2023/12/08 00:23:35;;;;;;;14.27;11.63;;;13.20;73.60;;;;;;344093;28;1115;-57
2023/12/08 00:23:46;;;;;;;13.77;11.57;;;13.20;73.60;;;;;;344179;28;1008;-57
2023/12/08 00:23:56;;;;;;;13.38;11.63;;;13.20;73.70;;;;;;344212;28;943;-57
2023/12/08 00:24:07;;;;;;;13.13;11.35;;;13.20;73.70;;;;;;344211;28;1015;-56
2023/12/08 00:24:18;;;;;;;13.23;11.40;;;13.20;73.70;;;;;;344159;28;883;-57
2023/12/08 00:24:29;;;;;;;13.40;11.57;;;13.20;73.80;;;;;;344235;28;1433;-56
2023/12/08 00:24:39;;;;;;;13.65;11.55;;;13.20;73.80;;;;;;344160;28;981;-57
2023/12/08 00:24:50;;;;;;;14.63;11.90;;;13.20;73.80;;;;;;344199;28;826;-57
2023/12/08 00:25:01;;;;;;;14.93;12.10;;;13.20;73.80;;;;;;344163;28;1099;-57
2023/12/08 00:25:12;;;;;;;14.47;11.97;;;13.20;73.80;;;;;;344049;28;1215;-62
2023/12/08 00:25:22;;;;;;;14.43;11.75;;;13.20;73.80;;;;;;344198;28;1363;-56
2023/12/08 00:25:33;;;;;;;14.48;11.77;;;13.20;73.90;;;;;;344221;28;881;-57
2023/12/08 00:25:44;;;;;;;14.40;11.65;;;13.20;73.80;;;;;;344194;28;1032;-55
2023/12/08 00:25:55;;;;;;;13.13;11.15;;;13.20;73.80;;;;;;344107;28;1311;-57
2023/12/08 00:26:06;;;;;;;12.30;10.73;;;13.20;73.80;;;;;;344209;28;1032;-56
2023/12/08 00:26:16;;;;;;;12.77;10.75;;;13.20;73.90;;;;;;344202;28;1004;-57
2023/12/08 00:26:28;;;;;;;12.80;10.80;;;13.20;73.90;;;;;;344213;28;881;-56
2023/12/08 00:26:39;;;;;;;12.85;11.00;;;13.20;73.90;;;;;;344173;28;1017;-57
2023/12/08 00:26:50;;;;;;;12.80;11.00;;;13.20;73.90;;;;;;344159;28;1910;-57
2023/12/08 00:27:01;;;;;;;12.98;10.88;;;13.20;73.90;;;;;;344193;28;1249;-56
2023/12/08 00:27:11;;;;;;;13.00;10.90;;;13.20;73.90;;;;;;344177;28;1079;-56
2023/12/08 00:27:22;;;;;;;13.10;10.80;;;13.20;73.90;;;;;;344110;28;1071;-56
2023/12/08 00:27:33;;;;;;;13.15;10.88;;;13.20;74.00;;;;;;344245;28;1023;-56
2023/12/08 00:27:44;;;;;;;13.90;11.02;;;13.20;73.90;;;;;;344192;28;961;-57
2023/12/08 00:27:54;;;;;;;14.25;11.15;;;13.20;74.00;;;;;;344242;28;873;-56
2023/12/08 00:28:05;;;;;;;14.18;11.02;;;13.20;73.90;;;;;;344055;28;1102;-57
2023/12/08 00:28:16;;;;;;;12.97;10.77;;;13.20;73.90;;;;;;344190;28;818;-56
2023/12/08 00:28:26;;;;;;;12.77;10.70;;;13.20;73.90;;;;;;344159;28;1790;-57
2023/12/08 00:28:37;;;;;;;12.23;10.38;;;13.20;73.80;;;;;;344194;28;996;-56
2023/12/08 00:28:48;;;;;;;12.05;10.15;;;13.20;73.80;;;;;;344124;28;909;-56
2023/12/08 00:28:59;;;;;;;11.67;10.20;;;13.20;73.80;;;;;;344175;28;1111;-57
2023/12/08 00:29:10;;;;;;;12.50;10.52;;;13.20;73.80;;;;;;344093;28;1497;-57
2023/12/08 00:29:21;;;;;;;12.27;10.45;;;13.20;73.80;;;;;;344256;28;912;-57
2023/12/08 00:29:31;;;;;;;12.32;9.75;;;13.20;73.80;;;;;;344161;28;1065;-57
2023/12/08 00:29:42;;;;;;;11.88;9.85;;;13.20;73.70;;;;;;344167;28;1407;-57
2023/12/08 00:29:53;;;;;;;12.10;10.07;;;13.20;73.70;;;;;;344151;28;1084;-57
2023/12/08 00:30:05;;;;;;;12.13;10.50;;;13.20;73.70;;;;;;344221;28;920;-57
2023/12/08 00:30:16;;;;;;;12.00;10.60;;;13.20;73.80;;;;;;344150;28;943;-57
2023/12/08 00:30:27;;;;;;;12.10;10.70;;;13.30;73.80;;;;;;344195;28;1135;-56
2023/12/08 00:30:37;;;;;;;11.88;10.50;;;13.30;73.80;;;;;;344125;28;1123;-56
2023/12/08 00:30:48;;;;;;;12.13;10.03;;;13.20;73.80;;;;;;344251;28;1095;-57
2023/12/08 00:30:59;;;;;;;12.15;9.68;;;13.20;73.80;;;;;;344138;28;877;-58
2023/12/08 00:31:10;;;;;;;12.52;9.77;;;13.30;73.70;;;;;;344150;28;861;-57
2023/12/08 00:31:21;;;;;;;12.00;9.75;;;13.30;73.70;;;;;;344204;28;976;-55
2023/12/08 00:31:32;;;;;;;11.70;9.70;;;13.30;73.70;;;;;;344209;28;864;-57
2023/12/08 00:31:43;;;;;;;11.48;9.73;;;13.30;73.60;;;;;;344159;28;1023;-55
2023/12/08 00:31:53;;;;;;;12.02;10.10;;;13.30;73.60;;;;;;344179;28;1524;-56
2023/12/08 00:32:04;;;;;;;11.35;9.82;;;13.30;73.50;;;;;;344184;28;1020;-56
2023/12/08 00:32:16;;;;;;;10.80;9.25;;;13.30;73.50;;;;;;344215;28;1415;-56
2023/12/08 00:32:27;;;;;;;10.10;8.88;;;13.30;73.40;;;;;;344130;28;1430;-57
2023/12/08 00:32:38;;;;;;;10.93;9.30;;;13.30;73.40;;;;;;344219;28;850;-58
2023/12/08 00:32:48;;;;;;;11.00;9.43;;;13.30;73.40;;;;;;344201;28;1135;-57
2023/12/08 00:32:59;;;;;;;11.32;9.63;;;13.30;73.40;;;;;;344134;28;1020;-58
2023/12/08 00:33:10;;;;;;;11.32;9.68;;;13.30;73.40;;;;;;344089;28;1001;-57
2023/12/08 00:33:21;;;;;;;11.50;9.90;;;13.30;73.40;;;;;;344131;28;1123;-58
2023/12/08 00:33:31;;;;;;;11.38;10.13;;;13.30;73.40;;;;;;344178;28;1141;-56
2023/12/08 00:33:43;;;;;;;11.40;10.20;;;13.30;73.50;;;;;;344191;28;992;-57
2023/12/08 00:33:53;;;;;;;11.32;10.10;;;13.30;73.50;;;;;;344135;28;1104;-56
2023/12/08 00:34:04;;;;;;;11.30;10.00;;;13.30;73.50;;;;;;344160;28;1021;-56
2023/12/08 00:34:16;;;;;;;11.63;9.98;;;13.30;73.50;;;;;;344234;28;861;-57
2023/12/08 00:34:27;;;;;;;11.90;9.98;;;13.30;73.40;;;;;;344184;28;988;-57
2023/12/08 00:34:37;;;;;;;11.37;9.57;;;13.30;73.50;;;;;;344142;28;956;-57
2023/12/08 00:34:49;;;;;;;10.88;9.23;;;13.30;73.50;;;;;;344129;28;1075;-56
2023/12/08 00:34:59;;;;;;;10.93;9.00;;;13.30;73.40;;;;;;344190;28;818;-56
2023/12/08 00:35:10;;;;;;;11.23;9.35;;;13.30;73.30;;;;;;344225;28;1071;-56
2023/12/08 00:35:22;;;;;;;11.90;9.73;;;13.30;73.30;;;;;;344108;28;1415;-56
2023/12/08 00:35:33;;;;;;;12.55;10.27;;;13.30;73.20;;;;;;344195;28;1403;-55
2023/12/08 00:35:43;;;;;;;12.52;10.18;;;13.30;73.30;;;;;;344217;28;961;-57
2023/12/08 00:35:54;;;;;;;12.47;9.93;;;13.30;73.30;;;;;;344204;28;985;-57
2023/12/08 00:36:17;;;;;;;11.37;9.60;;;13.30;73.30;;;;;;344018;28;926;-56
2023/12/08 00:36:28;;;;;;;10.60;9.48;;;13.30;73.30;;;;;;344007;28;1024;-59
2023/12/08 00:36:41;;;;;;;10.30;9.10;;;13.30;73.40;;;;;;344007;28;1009;-55
2023/12/08 00:36:52;;;;;;;10.43;8.68;;;13.30;73.40;;;;;;344004;28;998;-56
2023/12/08 00:37:03;;;;;;;11.13;8.98;;;13.30;73.40;;;;;;344115;28;1107;-56
2023/12/08 00:37:13;;;;;;;11.88;9.57;;;13.20;73.30;;;;;;344179;28;1099;-57
2023/12/08 00:37:25;;;;;;;11.43;9.60;;;13.30;73.40;;;;;;344112;28;1044;-56
2023/12/08 00:37:35;;;;;;;10.73;9.38;;;13.30;73.40;;;;;;344207;28;1116;-56
2023/12/08 00:37:46;;;;;;;10.48;9.20;;;13.20;73.40;;;;;;344161;28;1016;-57
2023/12/08 00:37:57;;;;;;;10.82;9.43;;;13.30;73.40;;;;;;344134;28;1145;-56
2023/12/08 00:38:09;;;;;;;10.70;9.02;;;13.30;73.40;;;;;;344206;28;1037;-56
2023/12/08 00:38:20;;;;;;;10.63;8.85;;;13.30;73.40;;;;;;344214;28;857;-56
2023/12/08 00:38:32;;;;;;;10.25;8.65;;;13.30;73.40;;;;;;344082;28;1119;-57
2023/12/08 00:38:44;;;;;;;10.23;8.77;;;13.30;73.30;;;;;;344128;28;1906;-56
2023/12/08 00:38:55;;;;;;;10.32;9.07;;;13.30;73.40;;;;;;344193;28;901;-57
2023/12/08 00:39:07;;;;;;;10.35;8.90;;;13.30;73.40;;;;;;344127;28;1106;-56
2023/12/08 00:39:18;;;;;;;10.73;8.80;;;13.30;73.30;;;;;;344214;28;972;-57
2023/12/08 00:39:28;;;;;;;10.63;8.88;;;13.30;73.30;;;;;;344204;28;1087;-56
2023/12/08 00:39:40;;;;;;;9.93;8.80;;;13.30;73.30;;;;;;344059;28;1093;-57
2023/12/08 00:39:51;;;;;;;10.13;8.93;;;13.30;73.30;;;;;;344188;28;1028;-58
2023/12/08 00:40:03;;;;;;;9.60;8.43;;;13.30;73.30;;;;;;344111;28;1088;-57
2023/12/08 00:40:16;;;;;;;8.98;7.95;;;13.30;73.30;;;;;;344093;28;2171;-55
2023/12/08 00:40:26;;;;;;;9.10;8.05;;;13.30;73.30;;;;;;344212;28;1042;-59
2023/12/08 00:40:37;;;;;;;9.23;8.23;;;13.30;73.20;;;;;;344144;28;1120;-58
2023/12/08 00:40:49;;;;;;;9.43;8.43;;;13.30;73.20;;;;;;344093;28;1027;-57
2023/12/08 00:41:00;;;;;;;9.32;8.32;;;13.30;73.10;;;;;;344145;28;1123;-57
2023/12/08 00:41:11;;;;;;;9.65;8.57;;;13.30;73.10;;;;;;344191;28;1087;-57
2023/12/08 00:41:22;;;;;;;10.13;8.82;;;13.30;73.10;;;;;;344151;28;1970;-56
2023/12/08 00:41:33;;;;;;;10.13;9.00;;;13.30;73.00;;;;;;344086;28;1009;-57
2023/12/08 00:41:44;;;;;;;10.00;9.00;;;13.40;73.00;;;;;;344184;28;1059;-56
2023/12/08 00:41:54;;;;;;;9.45;8.48;;;13.30;73.00;;;;;;344141;28;1136;-56
2023/12/08 00:42:05;;;;;;;9.55;8.55;;;13.30;73.00;;;;;;344137;28;969;-56
2023/12/08 00:42:16;;;;;;;9.45;8.45;;;13.40;73.10;;;;;;344140;28;984;-57
2023/12/08 00:42:27;;;;;;;9.60;8.60;;;13.40;73.10;;;;;;344248;28;845;-57
2023/12/08 00:42:38;;;;;;;9.32;8.32;;;13.40;73.00;;;;;;344144;28;1505;-57
2023/12/08 00:42:49;;;;;;;9.38;8.38;;;13.40;73.00;;;;;;344187;28;823;-57
2023/12/08 00:43:00;;;;;;;9.40;8.25;;;13.40;73.00;;;;;;344158;28;904;-57
2023/12/08 00:43:10;;;;;;;9.43;8.33;;;13.40;73.00;;;;;;344130;28;1432;-57
2023/12/08 00:43:21;;;;;;;9.50;8.32;;;13.40;73.00;;;;;;344143;28;1156;-58
2023/12/08 00:43:32;;;;;;;9.77;8.57;;;13.40;72.90;;;;;;344134;28;1638;-57
2023/12/08 00:43:42;;;;;;;9.55;8.48;;;13.40;72.90;;;;;;343995;28;1551;-58
2023/12/08 00:43:53;;;;;;;9.32;8.32;;;13.40;72.90;;;;;;344168;28;1193;-56
2023/12/08 00:44:04;;;;;;;8.90;8.00;;;13.40;72.90;;;;;;344182;28;964;-56
2023/12/08 00:44:15;;;;;;;9.57;8.57;;;13.40;72.90;;;;;;344177;28;936;-57
2023/12/08 00:44:26;;;;;;;10.18;9.15;;;13.40;72.90;;;;;;344109;28;1063;-57
2023/12/08 00:44:37;;;;;;;10.23;9.13;;;13.40;72.90;;;;;;344152;28;1581;-56
2023/12/08 00:44:48;;;;;;;10.32;8.98;;;13.40;72.90;;;;;;344169;28;881;-56
2023/12/08 00:44:59;;;;;;;10.32;8.90;;;13.40;72.90;;;;;;344204;28;1000;-57
2023/12/08 00:45:10;;;;;;;9.93;8.53;;;13.40;72.90;;;;;;344150;28;932;-56
2023/12/08 00:45:21;;;;;;;9.60;8.38;;;13.40;72.90;;;;;;344197;28;1067;-56
2023/12/08 00:45:32;;;;;;;9.73;8.57;;;13.40;72.90;;;;;;344225;28;930;-57
2023/12/08 00:45:42;;;;;;;10.35;8.70;;;13.40;72.90;;;;;;344255;28;869;-57
2023/12/08 00:45:53;;;;;;;10.38;8.50;;;13.40;73.00;;;;;;344151;28;986;-57
2023/12/08 00:46:04;;;;;;;10.27;8.38;;;13.30;73.00;;;;;;344236;28;963;-58
2023/12/08 00:46:17;;;;;;;10.77;8.75;;;13.40;73.00;;;;;;344119;28;1111;-56
2023/12/08 00:46:28;;;;;;;10.45;8.77;;;13.40;73.00;;;;;;344233;28;961;-56
2023/12/08 00:46:38;;;;;;;9.67;8.17;;;13.40;73.00;;;;;;344223;28;854;-57
2023/12/08 00:46:49;;;;;;;8.45;7.47;;;13.40;72.90;;;;;;344145;28;1045;-57
2023/12/08 00:47:00;;;;;;;8.63;7.43;;;13.40;72.90;;;;;;344182;28;1838;-59
2023/12/08 00:47:11;;;;;;;8.85;7.75;;;13.40;72.80;;;;;;344126;28;1044;-57
2023/12/08 00:47:21;;;;;;;8.75;7.82;;;13.40;72.80;;;;;;344142;28;1044;-57
2023/12/08 00:47:32;;;;;;;8.60;7.70;;;13.40;72.90;;;;;;344149;28;1076;-57
2023/12/08 00:47:43;;;;;;;8.63;7.50;;;13.40;72.80;;;;;;344064;28;985;-57
2023/12/08 00:47:54;;;;;;;8.80;7.50;;;13.40;72.80;;;;;;344208;28;1028;-58
2023/12/08 00:48:05;;;;;;;8.35;7.45;;;13.40;72.90;;;;;;344230;28;849;-57
2023/12/08 00:48:16;;;;;;;8.48;7.57;;;13.40;72.80;;;;;;344135;28;1179;-57
2023/12/08 00:48:26;;;;;;;9.15;8.15;;;13.40;72.70;;;;;;344083;28;1474;-57
2023/12/08 00:48:37;;;;;;;9.50;8.35;;;13.40;72.70;;;;;;344151;28;1021;-57
2023/12/08 00:48:48;;;;;;;9.90;8.80;;;13.40;72.70;;;;;;344162;28;1028;-57
2023/12/08 00:48:59;;;;;;;9.67;8.57;;;13.40;72.70;;;;;;344174;28;1072;-56
2023/12/08 00:49:09;;;;;;;10.18;8.82;;;13.40;72.70;;;;;;344173;28;1070;-59
2023/12/08 00:49:20;;;;;;;9.40;8.32;;;13.40;72.70;;;;;;344191;28;877;-56
2023/12/08 00:49:31;;;;;;;9.50;8.48;;;13.40;72.70;;;;;;344103;28;1050;-57
2023/12/08 00:49:42;;;;;;;9.35;8.35;;;13.40;72.70;;;;;;344150;28;1072;-56
2023/12/08 00:49:52;;;;;;;9.37;8.23;;;13.40;72.70;;;;;;344146;28;957;-56
2023/12/08 00:50:04;;;;;;;9.02;8.05;;;13.40;72.70;;;;;;344196;28;865;-57
2023/12/08 00:50:14;;;;;;;9.40;8.30;;;13.40;72.80;;;;;;344162;28;1422;-58
2023/12/08 00:50:25;;;;;;;10.00;8.60;;;13.40;72.80;;;;;;344136;28;1065;-57
2023/12/08 00:50:36;;;;;;;10.50;8.98;;;13.40;72.80;;;;;;344202;28;794;-57
2023/12/08 00:50:47;;;;;;;10.85;9.07;;;13.40;72.90;;;;;;344175;28;1919;-57
2023/12/08 00:50:57;;;;;;;9.67;8.47;;;13.40;72.90;;;;;;344148;28;1059;-56
2023/12/08 00:51:08;;;;;;;9.90;8.17;;;13.40;72.90;;;;;;344195;28;1012;-57
2023/12/08 00:51:19;;;;;;;9.70;8.10;;;13.40;72.90;;;;;;344086;28;1080;-55
2023/12/08 00:51:30;;;;;;;10.52;8.30;;;13.40;72.90;;;;;;344233;28;798;-58
2023/12/08 00:51:40;;;;;;;10.02;8.25;;;13.40;72.90;;;;;;344140;28;1012;-56
2023/12/08 00:51:51;;;;;;;9.63;8.33;;;13.40;72.90;;;;;;344157;28;995;-56
2023/12/08 00:52:02;;;;;;;9.85;8.43;;;13.40;72.90;;;;;;344028;28;1405;-57
2023/12/08 00:52:13;;;;;;;10.35;8.50;;;13.40;72.90;;;;;;344177;28;904;-57
2023/12/08 00:52:24;;;;;;;10.63;8.68;;;13.40;72.90;;;;;;344164;28;1012;-58
2023/12/08 00:52:35;;;;;;;10.00;8.65;;;13.40;72.90;;;;;;344153;28;964;-56
2023/12/08 00:52:46;;;;;;;9.68;8.48;;;13.40;72.90;;;;;;344044;28;1027;-58
2023/12/08 00:52:57;;;;;;;9.85;8.60;;;13.40;72.80;;;;;;344162;28;863;-56
2023/12/08 00:53:08;;;;;;;9.75;8.50;;;13.40;72.90;;;;;;344213;28;881;-56
2023/12/08 00:53:19;;;;;;;9.70;8.43;;;13.40;72.80;;;;;;344184;28;1016;-58
2023/12/08 00:53:30;;;;;;;9.82;8.63;;;13.40;72.90;;;;;;344073;28;1062;-57
2023/12/08 00:53:41;;;;;;;10.50;9.05;;;13.40;72.80;;;;;;344131;28;2056;-57
2023/12/08 00:53:52;;;;;;;9.80;8.80;;;13.40;72.80;;;;;;344193;28;973;-57
2023/12/08 00:54:03;;;;;;;9.50;8.52;;;13.40;72.80;;;;;;344173;28;917;-56
2023/12/08 00:54:14;;;;;;;9.63;8.50;;;13.40;72.90;;;;;;344064;28;1091;-58
2023/12/08 00:54:25;;;;;;;10.30;8.73;;;13.40;72.90;;;;;;344208;28;894;-58
2023/12/08 00:54:35;;;;;;;10.23;8.73;;;13.40;72.90;;;;;;344146;28;1107;-58
2023/12/08 00:54:47;;;;;;;10.07;8.70;;;13.40;72.90;;;;;;344135;28;1127;-58
2023/12/08 00:54:58;;;;;;;10.27;8.85;;;13.40;72.90;;;;;;344141;28;1047;-57
2023/12/08 00:55:09;;;;;;;9.85;8.68;;;13.40;72.80;;;;;;344156;28;791;-56
2023/12/08 00:55:19;;;;;;;9.82;8.82;;;13.40;72.80;;;;;;344113;28;1076;-56
2023/12/08 00:55:30;;;;;;;9.67;8.67;;;13.30;72.90;;;;;;344125;28;1055;-55
2023/12/08 00:55:41;;;;;;;10.02;8.88;;;13.40;72.90;;;;;;344092;28;1019;-58
2023/12/08 00:55:52;;;;;;;9.88;8.75;;;13.30;72.90;;;;;;344184;28;1044;-57
2023/12/08 00:56:03;;;;;;;10.05;8.95;;;13.30;72.80;;;;;;344156;28;834;-56
2023/12/08 00:56:14;;;;;;;10.10;9.10;;;13.30;72.90;;;;;;344165;28;1094;-56
2023/12/08 00:56:25;;;;;;;10.18;9.07;;;13.30;72.90;;;;;;344128;28;976;-57
2023/12/08 00:56:35;;;;;;;9.82;8.82;;;13.30;73.10;;;;;;344148;28;818;-58
2023/12/08 00:56:47;;;;;;;9.93;8.70;;;13.30;73.10;;;;;;344126;28;1147;-58
2023/12/08 00:56:57;;;;;;;9.75;8.40;;;13.30;73.10;;;;;;344047;28;1020;-58
2023/12/08 00:57:08;;;;;;;9.60;8.27;;;13.30;73.10;;;;;;344161;28;961;-56
2023/12/08 00:57:19;;;;;;;10.63;9.15;;;13.30;73.20;;;;;;344177;28;866;-56
2023/12/08 00:57:30;;;;;;;11.47;10.13;;;13.30;73.20;;;;;;344060;28;1115;-56
2023/12/08 00:57:40;;;;;;;12.73;11.40;;;13.30;73.20;;;;;;344170;28;1011;-56
2023/12/08 00:57:51;;;;;;;13.25;11.90;;;13.30;73.10;;;;;;344193;28;1035;-57